createdAt,value
2022-08-21T00:00:30.069Z,14.70
2022-08-21T00:03:06.150Z,14.70
2022-08-21T00:05:39.843Z,14.60
2022-08-21T00:08:07.176Z,14.60
2022-08-21T00:10:34.182Z,14.50
2022-08-21T00:13:07.253Z,14.50
2022-08-21T00:15:36.138Z,14.40
2022-08-21T00:18:03.794Z,14.40
2022-08-21T00:20:30.886Z,14.40
2022-08-21T00:22:58.135Z,14.30
2022-08-21T00:25:26.238Z,14.30
2022-08-21T00:27:53.634Z,14.30
2022-08-21T00:30:23.087Z,14.30
2022-08-21T00:32:52.365Z,14.30
2022-08-21T00:35:28.204Z,14.20
2022-08-21T00:37:55.664Z,14.20
2022-08-21T00:40:30.788Z,14.10
2022-08-21T00:42:58.277Z,14.10
2022-08-21T00:45:25.496Z,14.10
2022-08-21T00:47:52.921Z,14.00
2022-08-21T00:50:21.925Z,13.90
2022-08-21T00:52:52.086Z,13.90
2022-08-21T00:55:21.032Z,13.80
2022-08-21T00:57:55.117Z,13.70
2022-08-21T01:00:29.481Z,13.70
2022-08-21T01:03:01.104Z,13.70
2022-08-21T01:05:40.291Z,13.60
2022-08-21T01:08:09.878Z,13.60
2022-08-21T01:10:38.174Z,13.50
2022-08-21T01:13:08.820Z,13.50
2022-08-21T01:15:39.977Z,13.40
2022-08-21T01:18:09.225Z,13.30
2022-08-21T01:20:38.088Z,13.30
2022-08-21T01:23:06.819Z,13.20
2022-08-21T01:25:35.266Z,13.20
2022-08-21T01:28:09.332Z,13.20
2022-08-21T01:30:38.459Z,13.10
2022-08-21T01:33:05.803Z,13.10
2022-08-21T01:35:32.725Z,13.10
2022-08-21T01:37:59.530Z,13.10
2022-08-21T01:40:27.763Z,13.00
2022-08-21T01:42:54.663Z,13.00
2022-08-21T01:45:21.771Z,13.00
2022-08-21T01:47:48.731Z,13.00
2022-08-21T01:50:19.153Z,12.90
2022-08-21T01:52:47.123Z,13.00
2022-08-21T01:55:14.712Z,13.00
2022-08-21T01:57:42.310Z,13.00
2022-08-21T02:00:12.228Z,13.00
2022-08-21T02:02:40.944Z,13.00
2022-08-21T02:05:10.624Z,13.00
2022-08-21T02:07:49.823Z,13.00
2022-08-21T02:10:21.020Z,13.00
2022-08-21T02:12:49.276Z,13.10
2022-08-21T02:15:16.792Z,13.00
2022-08-21T02:17:51.744Z,13.00
2022-08-21T02:20:26.713Z,13.00
2022-08-21T02:22:54.037Z,13.00
2022-08-21T02:25:23.289Z,12.90
2022-08-21T02:27:51.051Z,12.90
2022-08-21T02:30:23.696Z,12.90
2022-08-21T02:32:50.781Z,12.90
2022-08-21T02:35:17.633Z,12.80
2022-08-21T02:37:50.903Z,12.90
2022-08-21T02:40:20.070Z,12.80
2022-08-21T02:42:48.186Z,12.70
2022-08-21T02:45:17.212Z,12.70
2022-08-21T02:47:56.526Z,12.60
2022-08-21T02:50:26.762Z,12.60
2022-08-21T02:52:55.032Z,12.50
2022-08-21T02:55:26.811Z,12.50
2022-08-21T02:57:55.907Z,12.40
2022-08-21T03:00:26.144Z,12.30
2022-08-21T03:02:54.324Z,12.30
2022-08-21T03:05:21.290Z,12.20
2022-08-21T03:07:48.715Z,12.20
2022-08-21T03:10:16.178Z,12.20
2022-08-21T03:12:43.141Z,12.10
2022-08-21T03:15:13.554Z,12.10
2022-08-21T03:17:40.591Z,12.10
2022-08-21T03:20:09.561Z,12.00
2022-08-21T03:22:36.570Z,12.00
2022-08-21T03:25:06.227Z,11.90
2022-08-21T03:27:34.932Z,11.90
2022-08-21T03:30:06.587Z,11.80
2022-08-21T03:32:33.777Z,11.90
2022-08-21T03:35:02.596Z,11.90
2022-08-21T03:37:29.810Z,11.90
2022-08-21T03:39:57.314Z,11.90
2022-08-21T03:42:24.384Z,11.80
2022-08-21T03:44:51.521Z,11.80
2022-08-21T03:47:18.897Z,11.80
2022-08-21T03:49:45.931Z,11.80
2022-08-21T03:52:13.791Z,11.80
2022-08-21T03:54:42.266Z,11.70
2022-08-21T03:57:10.193Z,11.60
2022-08-21T03:59:37.444Z,11.60
2022-08-21T04:02:06.656Z,11.50
2022-08-21T04:04:34.028Z,11.50
2022-08-21T04:07:01.324Z,11.50
2022-08-21T04:09:28.511Z,11.50
2022-08-21T04:11:55.537Z,11.50
2022-08-21T04:14:23.181Z,11.50
2022-08-21T04:16:49.989Z,11.50
2022-08-21T04:19:17.263Z,11.50
2022-08-21T04:21:44.462Z,11.40
2022-08-21T04:24:11.840Z,11.40
2022-08-21T04:26:40.125Z,11.40
2022-08-21T04:29:10.456Z,11.40
2022-08-21T04:31:38.130Z,11.40
2022-08-21T04:34:06.105Z,11.30
2022-08-21T04:36:34.299Z,11.30
2022-08-21T04:39:01.316Z,11.30
2022-08-21T04:41:30.430Z,11.30
2022-08-21T04:43:57.435Z,11.40
2022-08-21T04:46:24.511Z,11.30
2022-08-21T04:48:51.349Z,11.30
2022-08-21T04:51:29.200Z,11.40
2022-08-21T04:54:21.297Z,11.40
2022-08-21T04:57:00.739Z,11.50
2022-08-21T04:59:40.185Z,11.50
2022-08-21T05:02:07.923Z,11.60
2022-08-21T05:04:38.135Z,11.60
2022-08-21T05:07:08.167Z,11.70
2022-08-21T05:09:35.859Z,11.80
2022-08-21T05:12:03.503Z,12.00
2022-08-21T05:14:30.441Z,12.00
2022-08-21T05:16:57.221Z,12.10
2022-08-21T05:19:26.038Z,12.20
2022-08-21T05:21:53.161Z,12.30
2022-08-21T05:24:20.074Z,12.30
2022-08-21T05:26:47.786Z,12.40
2022-08-21T05:29:16.591Z,12.40
2022-08-21T05:31:44.525Z,12.40
2022-08-21T05:34:11.981Z,12.50
2022-08-21T05:36:43.106Z,12.60
2022-08-21T05:39:09.921Z,12.60
2022-08-21T05:41:37.022Z,12.70
2022-08-21T05:44:04.308Z,12.70
2022-08-21T05:46:37.580Z,12.80
2022-08-21T05:49:04.973Z,12.80
2022-08-21T05:51:32.169Z,12.90
2022-08-21T05:53:59.056Z,13.00
2022-08-21T05:56:26.047Z,13.00
2022-08-21T05:58:52.842Z,13.10
2022-08-21T06:01:19.929Z,13.20
2022-08-21T06:03:46.815Z,13.20
2022-08-21T06:06:13.727Z,13.30
2022-08-21T06:08:40.622Z,13.40
2022-08-21T06:11:08.700Z,13.40
2022-08-21T06:13:36.971Z,13.60
2022-08-21T06:16:16.079Z,13.70
2022-08-21T06:18:45.061Z,13.90
2022-08-21T06:21:12.667Z,14.00
2022-08-21T06:23:40.359Z,14.20
2022-08-21T06:26:08.496Z,14.40
2022-08-21T06:28:36.320Z,14.60
2022-08-21T06:31:18.186Z,14.80
2022-08-21T06:33:45.297Z,15.10
2022-08-21T06:36:12.406Z,15.40
2022-08-21T06:38:40.020Z,15.80
2022-08-21T06:41:07.955Z,16.10
2022-08-21T06:43:39.751Z,16.40
2022-08-21T06:46:08.633Z,16.80
2022-08-21T06:48:35.600Z,17.20
2022-08-21T06:51:02.474Z,17.50
2022-08-21T06:53:29.384Z,17.90
2022-08-21T06:55:56.667Z,18.30
2022-08-21T06:58:23.968Z,18.60
2022-08-21T07:00:52.469Z,19.00
2022-08-21T07:03:20.945Z,19.20
2022-08-21T07:05:47.879Z,19.40
2022-08-21T07:08:14.884Z,19.60
2022-08-21T07:10:41.954Z,19.70
2022-08-21T07:13:08.820Z,19.60
2022-08-21T07:15:35.702Z,19.80
2022-08-21T07:18:02.790Z,19.90
2022-08-21T07:20:31.127Z,20.20
2022-08-21T07:23:04.219Z,20.60
2022-08-21T07:25:32.274Z,20.90
2022-08-21T07:27:59.226Z,21.20
2022-08-21T07:30:26.220Z,21.40
2022-08-21T07:32:53.481Z,21.60
2022-08-21T07:35:22.751Z,21.80
2022-08-21T07:37:50.851Z,22.00
2022-08-21T07:40:18.454Z,22.30
2022-08-21T07:42:47.794Z,22.60
2022-08-21T07:45:17.159Z,22.90
2022-08-21T07:47:44.014Z,23.30
2022-08-21T07:50:12.585Z,23.70
2022-08-21T07:52:42.046Z,24.10
2022-08-21T07:55:14.183Z,24.30
2022-08-21T07:57:41.279Z,24.60
2022-08-21T08:00:17.901Z,24.70
2022-08-21T08:02:50.345Z,25.00
2022-08-21T08:08:26.364Z,25.30
2022-08-21T08:10:55.003Z,25.50
2022-08-21T08:13:22.015Z,25.70
2022-08-21T08:15:50.617Z,26.00
2022-08-21T08:18:17.603Z,26.30
2022-08-21T08:20:44.596Z,26.70
2022-08-21T08:23:12.705Z,26.90
2022-08-21T08:25:40.774Z,27.10
2022-08-21T08:28:17.056Z,27.30
2022-08-21T08:30:45.960Z,27.70
2022-08-21T08:33:13.343Z,28.10
2022-08-21T08:35:41.331Z,28.20
2022-08-21T08:38:09.468Z,28.30
2022-08-21T08:41:11.799Z,28.30
2022-08-21T08:43:38.692Z,28.50
2022-08-21T08:46:15.147Z,28.80
2022-08-21T08:48:56.748Z,29.20
2022-08-21T08:51:44.747Z,29.60
2022-08-21T08:54:22.375Z,30.00
2022-08-21T08:56:51.911Z,30.10
2022-08-21T08:59:29.312Z,30.40
2022-08-21T09:01:57.564Z,30.50
2022-08-21T09:04:28.907Z,30.60
2022-08-21T09:06:56.116Z,30.50
2022-08-21T09:09:45.693Z,30.40
2022-08-21T09:12:38.033Z,30.40
2022-08-21T09:15:47.868Z,30.60
2022-08-21T09:18:24.222Z,30.60
2022-08-21T09:21:22.055Z,30.60
2022-08-21T09:24:19.860Z,30.70
2022-08-21T09:27:08.466Z,31.10
2022-08-21T09:29:39.785Z,31.60
2022-08-21T09:32:19.552Z,32.20
2022-08-21T09:35:23.395Z,32.70
2022-08-21T09:38:06.531Z,33.20
2022-08-21T09:40:47.238Z,33.50
2022-08-21T09:43:23.076Z,33.70
2022-08-21T09:46:07.787Z,34.00
2022-08-21T09:48:49.420Z,34.20
2022-08-21T09:51:19.399Z,34.20
2022-08-21T09:54:06.076Z,34.00
2022-08-21T09:56:56.758Z,33.90
2022-08-21T09:59:26.947Z,33.90
2022-08-21T10:01:55.424Z,33.90
2022-08-21T10:04:31.172Z,34.00
2022-08-21T10:07:13.783Z,34.30
2022-08-21T10:09:43.794Z,34.70
2022-08-21T10:12:17.021Z,35.10
2022-08-21T10:14:49.726Z,35.20
2022-08-21T10:17:51.528Z,35.40
2022-08-21T10:20:24.815Z,35.60
2022-08-21T10:23:19.559Z,35.90
2022-08-21T10:26:13.533Z,36.10
2022-08-21T10:28:53.432Z,36.20
2022-08-21T10:31:47.604Z,36.20
2022-08-21T10:34:17.200Z,36.40
2022-08-21T10:37:01.848Z,36.50
2022-08-21T10:40:01.105Z,36.60
2022-08-21T10:42:41.920Z,36.80
2022-08-21T10:45:28.834Z,36.80
2022-08-21T10:48:03.279Z,36.50
2022-08-21T10:50:40.164Z,35.80
2022-08-21T10:53:31.634Z,35.60
2022-08-21T10:56:13.303Z,35.40
2022-08-21T10:59:02.197Z,35.60
2022-08-21T11:01:51.307Z,36.00
2022-08-21T11:04:46.344Z,36.60
2022-08-21T11:07:22.145Z,37.10
2022-08-21T11:09:51.088Z,37.40
2022-08-21T11:12:23.973Z,37.40
2022-08-21T11:15:03.403Z,37.70
2022-08-21T11:17:51.298Z,37.10
2022-08-21T11:20:29.571Z,36.70
2022-08-21T11:23:07.095Z,36.90
2022-08-21T11:25:38.753Z,37.20
2022-08-21T11:28:23.732Z,37.50
2022-08-21T11:31:15.688Z,37.60
2022-08-21T11:33:54.419Z,37.70
2022-08-21T11:36:36.163Z,38.10
2022-08-21T11:39:26.263Z,38.40
2022-08-21T11:42:11.859Z,38.20
2022-08-21T11:45:08.773Z,37.60
2022-08-21T11:47:57.286Z,37.20
2022-08-21T11:50:35.085Z,36.60
2022-08-21T11:53:43.105Z,36.20
2022-08-21T11:56:18.025Z,35.60
2022-08-21T11:58:55.455Z,34.80
2022-08-21T12:01:33.684Z,34.10
2022-08-21T12:04:10.802Z,34.00
2022-08-21T12:06:42.400Z,33.80
2022-08-21T12:09:24.646Z,33.90
2022-08-21T12:12:06.631Z,34.10
2022-08-21T12:14:38.640Z,34.00
2022-08-21T12:17:12.306Z,34.00
2022-08-21T12:20:00.420Z,34.10
2022-08-21T12:22:42.481Z,34.10
2022-08-21T12:25:21.775Z,34.00
2022-08-21T12:27:49.421Z,34.00
2022-08-21T12:30:28.711Z,34.10
2022-08-21T12:33:33.898Z,34.40
2022-08-21T12:36:16.925Z,35.00
2022-08-21T12:39:07.438Z,35.10
2022-08-21T12:42:02.200Z,34.60
2022-08-21T12:45:03.313Z,34.00
2022-08-21T12:47:58.317Z,34.00
2022-08-21T12:50:57.690Z,34.10
2022-08-21T12:53:39.914Z,34.50
2022-08-21T12:56:14.448Z,34.90
2022-08-21T12:58:46.289Z,35.20
2022-08-21T13:01:26.855Z,35.00
2022-08-21T13:04:04.391Z,34.30
2022-08-21T13:06:39.340Z,33.40
2022-08-21T13:09:11.255Z,32.80
2022-08-21T13:12:09.337Z,32.30
2022-08-21T13:14:45.373Z,31.60
2022-08-21T13:17:23.725Z,31.30
2022-08-21T13:20:02.572Z,31.50
2022-08-21T13:22:33.522Z,32.00
2022-08-21T13:25:10.155Z,31.80
2022-08-21T13:27:38.125Z,32.20
2022-08-21T13:30:13.703Z,32.90
2022-08-21T13:32:46.277Z,32.90
2022-08-21T13:35:36.931Z,32.60
2022-08-21T13:38:06.483Z,32.10
2022-08-21T13:40:58.042Z,31.70
2022-08-21T13:43:32.932Z,31.40
2022-08-21T13:46:07.067Z,30.90
2022-08-21T13:48:40.758Z,30.40
2022-08-21T13:51:08.144Z,30.00
2022-08-21T13:53:45.887Z,30.00
2022-08-21T13:56:34.382Z,30.10
2022-08-21T13:59:34.912Z,30.10
2022-08-21T14:02:16.553Z,30.20
2022-08-21T14:05:01.008Z,30.60
2022-08-21T14:07:33.315Z,31.30
2022-08-21T14:10:05.755Z,31.60
2022-08-21T14:12:59.577Z,31.30
2022-08-21T14:15:30.440Z,31.20
2022-08-21T14:18:30.216Z,31.00
2022-08-21T14:21:08.544Z,31.30
2022-08-21T14:23:35.546Z,31.40
2022-08-21T14:26:05.302Z,31.70
2022-08-21T14:28:41.722Z,32.00
2022-08-21T14:31:19.948Z,32.30
2022-08-21T14:33:48.811Z,32.50
2022-08-21T14:36:16.883Z,32.40
2022-08-21T14:38:44.789Z,32.40
2022-08-21T14:41:25.024Z,32.50
2022-08-21T14:43:55.967Z,32.40
2022-08-21T14:46:36.507Z,32.60
2022-08-21T14:49:16.923Z,32.70
2022-08-21T14:51:54.084Z,32.80
2022-08-21T14:54:23.281Z,32.60
2022-08-21T14:57:01.482Z,32.50
2022-08-21T14:59:28.619Z,32.60
2022-08-21T15:01:57.279Z,32.50
2022-08-21T15:04:25.560Z,32.20
2022-08-21T15:06:56.467Z,31.60
2022-08-21T15:09:24.888Z,31.30
2022-08-21T15:11:54.336Z,31.20
2022-08-21T15:14:26.633Z,31.30
2022-08-21T15:16:59.934Z,31.30
2022-08-21T15:19:28.270Z,31.30
2022-08-21T15:22:06.782Z,31.20
2022-08-21T15:24:43.647Z,31.20
2022-08-21T15:27:17.943Z,31.10
2022-08-21T15:29:45.052Z,31.00
2022-08-21T15:32:27.287Z,30.90
2022-08-21T15:34:55.515Z,30.60
2022-08-21T15:37:25.484Z,30.40
2022-08-21T15:39:54.663Z,30.20
2022-08-21T15:42:27.787Z,30.10
2022-08-21T15:44:57.039Z,29.90
2022-08-21T15:47:36.978Z,29.70
2022-08-21T15:50:08.354Z,29.60
2022-08-21T15:52:36.390Z,29.50
2022-08-21T15:55:06.411Z,29.40
2022-08-21T15:57:35.095Z,29.40
2022-08-21T16:00:13.279Z,29.20
2022-08-21T16:02:46.554Z,29.00
2022-08-21T16:05:19.372Z,28.80
2022-08-21T16:07:47.618Z,28.70
2022-08-21T16:10:16.587Z,28.50
2022-08-21T16:12:51.155Z,28.50
2022-08-21T16:15:20.487Z,28.40
2022-08-21T16:17:49.775Z,28.20
2022-08-21T16:20:24.988Z,28.00
2022-08-21T16:22:53.340Z,27.80
2022-08-21T16:25:21.199Z,27.60
2022-08-21T16:27:56.196Z,27.40
2022-08-21T16:30:27.635Z,27.30
2022-08-21T16:32:54.922Z,27.20
2022-08-21T16:35:23.265Z,27.10
2022-08-21T16:37:53.114Z,27.00
2022-08-21T16:40:22.936Z,26.80
2022-08-21T16:42:50.544Z,26.70
2022-08-21T16:45:21.106Z,26.60
2022-08-21T16:47:48.064Z,26.50
2022-08-21T16:50:18.855Z,26.50
2022-08-21T16:52:45.683Z,26.50
2022-08-21T16:55:12.505Z,26.40
2022-08-21T16:57:39.453Z,26.40
2022-08-21T17:00:13.853Z,26.30
2022-08-21T17:02:48.411Z,26.30
2022-08-21T17:05:16.856Z,26.20
2022-08-21T17:07:44.160Z,26.10
2022-08-21T17:10:13.496Z,26.10
2022-08-21T17:12:41.991Z,26.00
2022-08-21T17:15:21.301Z,25.80
2022-08-21T17:17:49.823Z,25.70
2022-08-21T17:20:17.067Z,25.70
2022-08-21T17:22:44.058Z,25.60
2022-08-21T17:25:11.077Z,25.50
2022-08-21T17:27:38.840Z,25.40
2022-08-21T17:30:07.458Z,25.30
2022-08-21T17:32:35.525Z,25.20
2022-08-21T17:35:04.619Z,25.10
2022-08-21T17:37:31.756Z,25.00
2022-08-21T17:39:59.039Z,24.80
2022-08-21T17:42:27.416Z,24.70
2022-08-21T17:44:56.625Z,24.60
2022-08-21T17:47:24.298Z,24.60
2022-08-21T17:49:52.454Z,24.40
2022-08-21T17:52:19.386Z,24.30
2022-08-21T17:54:46.262Z,24.20
2022-08-21T17:57:19.973Z,24.00
2022-08-21T17:59:51.002Z,23.80
2022-08-21T18:02:20.360Z,23.60
2022-08-21T18:04:50.502Z,23.40
2022-08-21T18:07:31.706Z,23.20
2022-08-21T18:10:08.427Z,23.00
2022-08-21T18:12:35.711Z,22.80
2022-08-21T18:15:03.837Z,22.50
2022-08-21T18:17:33.586Z,22.30
2022-08-21T18:20:01.967Z,22.10
2022-08-21T18:22:28.862Z,21.90
2022-08-21T18:24:55.680Z,21.80
2022-08-21T18:27:29.078Z,21.60
2022-08-21T18:30:02.080Z,21.40
2022-08-21T18:32:30.805Z,21.20
2022-08-21T18:35:05.123Z,21.00
2022-08-21T18:37:33.300Z,20.90
2022-08-21T18:40:00.411Z,20.80
2022-08-21T18:42:30.303Z,20.60
2022-08-21T18:45:01.912Z,20.50
2022-08-21T18:47:37.100Z,20.30
2022-08-21T18:50:06.016Z,20.20
2022-08-21T18:52:37.722Z,20.00
2022-08-21T18:55:06.275Z,19.90
2022-08-21T18:57:41.489Z,19.80
2022-08-21T19:00:17.655Z,19.70
2022-08-21T19:02:44.854Z,19.50
2022-08-21T19:05:14.167Z,19.40
2022-08-21T19:07:41.090Z,19.30
2022-08-21T19:10:28.191Z,19.30
2022-08-21T19:12:59.261Z,19.20
2022-08-21T19:15:26.624Z,19.10
2022-08-21T19:17:54.406Z,19.10
2022-08-21T19:20:31.518Z,19.00
2022-08-21T19:22:58.492Z,19.00
2022-08-21T19:25:32.901Z,18.80
2022-08-21T19:28:10.873Z,18.80
2022-08-21T19:30:41.062Z,18.70
2022-08-21T19:33:12.961Z,18.70
2022-08-21T19:35:52.535Z,18.50
2022-08-21T19:38:19.704Z,18.50
2022-08-21T19:40:46.613Z,18.40
2022-08-21T19:43:13.856Z,18.30
2022-08-21T19:45:40.848Z,18.20
2022-08-21T19:48:09.633Z,18.20
2022-08-21T19:50:37.098Z,18.10
2022-08-21T19:53:04.981Z,18.00
2022-08-21T19:55:44.111Z,17.90
2022-08-21T19:58:37.700Z,17.80
2022-08-21T20:01:16.308Z,17.80
2022-08-21T20:03:44.993Z,17.70
2022-08-21T20:06:22.037Z,17.70
2022-08-21T20:08:52.027Z,17.60
2022-08-21T20:11:28.205Z,17.50
2022-08-21T20:13:59.578Z,17.40
2022-08-21T20:16:28.735Z,17.40
2022-08-21T20:18:55.724Z,17.30
2022-08-21T20:21:22.790Z,17.20
2022-08-21T20:23:50.030Z,17.20
2022-08-21T20:26:18.508Z,17.10
2022-08-21T20:28:46.034Z,17.00
2022-08-21T20:31:19.631Z,17.00
2022-08-21T20:36:35.019Z,16.90
2022-08-21T20:39:06.890Z,16.80
2022-08-21T20:41:36.605Z,16.80
2022-08-21T20:44:10.681Z,16.70
2022-08-21T20:46:40.048Z,16.70
2022-08-21T20:49:09.280Z,16.60
2022-08-21T20:51:40.856Z,16.60
2022-08-21T20:54:29.114Z,16.60
2022-08-21T20:57:06.016Z,16.50
2022-08-21T20:59:43.645Z,16.50
2022-08-21T21:02:35.939Z,16.50
2022-08-21T21:05:28.009Z,16.50
2022-08-21T21:08:21.073Z,16.40
2022-08-21T21:11:02.181Z,16.40
2022-08-21T21:13:34.905Z,16.30
2022-08-21T21:16:08.597Z,16.30
2022-08-21T21:19:04.653Z,16.30
2022-08-21T21:21:52.084Z,16.20
2022-08-21T21:24:35.445Z,16.10
2022-08-21T21:27:12.234Z,16.10
2022-08-21T21:29:46.512Z,16.00
2022-08-21T21:32:17.982Z,16.00
2022-08-21T21:34:47.384Z,15.90
2022-08-21T21:37:28.674Z,15.80
2022-08-21T21:40:17.426Z,15.80
2022-08-21T21:42:56.365Z,15.70
2022-08-21T21:45:37.050Z,15.70
2022-08-21T21:48:32.155Z,15.60
2022-08-21T21:51:13.320Z,15.50
2022-08-21T21:54:16.278Z,15.40
2022-08-21T21:56:55.070Z,15.40
2022-08-21T22:00:00.753Z,15.30
2022-08-21T22:02:38.669Z,15.20
2022-08-21T22:05:13.890Z,15.20
2022-08-21T22:07:48.482Z,15.10
2022-08-21T22:10:30.603Z,15.10
2022-08-21T22:13:41.021Z,15.00
2022-08-21T22:16:07.860Z,14.90
2022-08-21T22:18:54.808Z,14.90
2022-08-21T22:21:34.243Z,14.80
2022-08-21T22:24:15.321Z,14.80
2022-08-21T22:26:48.289Z,14.70
2022-08-21T22:29:19.804Z,14.70
2022-08-21T22:32:06.851Z,14.60
2022-08-21T22:34:34.062Z,14.60
2022-08-21T22:37:11.307Z,14.50
2022-08-21T22:39:45.489Z,14.50
2022-08-21T22:42:20.905Z,14.40
2022-08-21T22:44:53.317Z,14.40
2022-08-21T22:47:25.765Z,14.30
2022-08-21T22:49:54.203Z,14.30
2022-08-21T22:52:26.680Z,14.30
2022-08-21T22:55:01.308Z,14.20
2022-08-21T22:57:33.902Z,14.10
2022-08-21T23:00:12.316Z,14.10
2022-08-21T23:02:55.113Z,14.10
2022-08-21T23:05:34.393Z,14.00
2022-08-21T23:08:24.268Z,14.00
2022-08-21T23:10:51.427Z,13.90
2022-08-21T23:13:20.294Z,13.80
2022-08-21T23:16:15.813Z,13.80
2022-08-21T23:19:01.140Z,13.80
2022-08-21T23:21:51.242Z,13.80
2022-08-21T23:24:30.181Z,13.70
2022-08-21T23:27:22.924Z,13.70
2022-08-21T23:29:52.770Z,13.60
2022-08-21T23:32:52.496Z,13.60
2022-08-21T23:36:06.220Z,13.60
2022-08-21T23:38:39.985Z,13.50
2022-08-21T23:41:34.072Z,13.50
2022-08-21T23:44:04.483Z,13.40
2022-08-21T23:46:58.352Z,13.40
2022-08-21T23:49:33.662Z,13.40
2022-08-21T23:52:25.432Z,13.30
2022-08-21T23:55:07.760Z,13.30
2022-08-21T23:58:02.570Z,13.20
